sensor_id;sensor_type;location;lat;lon;timestamp;P1;durP1;ratioP1;P2;durP2;ratioP2
34695;SDS011;20918;51.138;17.370;2022-08-18T00:01:04;21.02;;;13.62;;
34695;SDS011;20918;51.138;17.370;2022-08-18T00:04:09;20.25;;;14.23;;
34695;SDS011;20918;51.138;17.370;2022-08-18T00:07:13;19.15;;;14.55;;
34695;SDS011;20918;51.138;17.370;2022-08-18T00:10:17;19.50;;;13.15;;
34695;SDS011;20918;51.138;17.370;2022-08-18T00:13:18;17.45;;;13.38;;
34695;SDS011;20918;51.138;17.370;2022-08-18T00:16:19;18.10;;;12.20;;
34695;SDS011;20918;51.138;17.370;2022-08-18T00:19:20;14.87;;;12.33;;
34695;SDS011;20918;51.138;17.370;2022-08-18T00:22:23;15.25;;;12.03;;
34695;SDS011;20918;51.138;17.370;2022-08-18T00:25:24;15.55;;;12.13;;
34695;SDS011;20918;51.138;17.370;2022-08-18T00:28:26;16.55;;;12.70;;
34695;SDS011;20918;51.138;17.370;2022-08-18T00:31:27;15.28;;;12.58;;
34695;SDS011;20918;51.138;17.370;2022-08-18T00:34:28;22.77;;;14.05;;
34695;SDS011;20918;51.138;17.370;2022-08-18T00:37:29;18.75;;;15.05;;
34695;SDS011;20918;51.138;17.370;2022-08-18T00:40:33;20.23;;;14.23;;
34695;SDS011;20918;51.138;17.370;2022-08-18T00:43:43;16.40;;;14.70;;
34695;SDS011;20918;51.138;17.370;2022-08-18T00:46:48;19.65;;;14.53;;
34695;SDS011;20918;51.138;17.370;2022-08-18T00:49:50;17.40;;;15.35;;
34695;SDS011;20918;51.138;17.370;2022-08-18T00:52:54;20.40;;;14.70;;
34695;SDS011;20918;51.138;17.370;2022-08-18T00:56:04;17.83;;;14.43;;
34695;SDS011;20918;51.138;17.370;2022-08-18T00:59:32;21.93;;;14.93;;
34695;SDS011;20918;51.138;17.370;2022-08-18T01:02:52;17.75;;;13.88;;
34695;SDS011;20918;51.138;17.370;2022-08-18T01:06:03;23.25;;;12.58;;
34695;SDS011;20918;51.138;17.370;2022-08-18T01:09:09;19.17;;;14.73;;
34695;SDS011;20918;51.138;17.370;2022-08-18T01:12:11;19.92;;;14.85;;
34695;SDS011;20918;51.138;17.370;2022-08-18T01:15:12;21.75;;;14.13;;
34695;SDS011;20918;51.138;17.370;2022-08-18T01:18:15;16.35;;;13.78;;
34695;SDS011;20918;51.138;17.370;2022-08-18T01:21:35;14.70;;;12.90;;
34695;SDS011;20918;51.138;17.370;2022-08-18T01:24:50;16.25;;;12.85;;
34695;SDS011;20918;51.138;17.370;2022-08-18T01:28:13;14.40;;;11.43;;
34695;SDS011;20918;51.138;17.370;2022-08-18T01:31:36;14.15;;;12.43;;
34695;SDS011;20918;51.138;17.370;2022-08-18T01:34:43;22.02;;;15.90;;
34695;SDS011;20918;51.138;17.370;2022-08-18T01:37:47;20.37;;;14.70;;
34695;SDS011;20918;51.138;17.370;2022-08-18T01:40:48;15.65;;;12.18;;
34695;SDS011;20918;51.138;17.370;2022-08-18T01:43:50;16.70;;;12.58;;
34695;SDS011;20918;51.138;17.370;2022-08-18T01:46:51;12.45;;;11.03;;
34695;SDS011;20918;51.138;17.370;2022-08-18T01:49:53;13.20;;;11.88;;
34695;SDS011;20918;51.138;17.370;2022-08-18T01:52:56;17.75;;;12.90;;
34695;SDS011;20918;51.138;17.370;2022-08-18T01:55:57;18.57;;;13.45;;
34695;SDS011;20918;51.138;17.370;2022-08-18T01:58:58;19.12;;;13.50;;
34695;SDS011;20918;51.138;17.370;2022-08-18T02:01:59;17.15;;;13.78;;
34695;SDS011;20918;51.138;17.370;2022-08-18T02:05:03;15.05;;;13.53;;
34695;SDS011;20918;51.138;17.370;2022-08-18T02:08:07;25.08;;;16.17;;
34695;SDS011;20918;51.138;17.370;2022-08-18T02:11:11;19.20;;;14.83;;
34695;SDS011;20918;51.138;17.370;2022-08-18T02:14:13;19.07;;;13.88;;
34695;SDS011;20918;51.138;17.370;2022-08-18T02:17:14;34.83;;;13.05;;
34695;SDS011;20918;51.138;17.370;2022-08-18T02:20:16;34.78;;;16.65;;
34695;SDS011;20918;51.138;17.370;2022-08-18T02:23:19;21.05;;;16.27;;
34695;SDS011;20918;51.138;17.370;2022-08-18T02:26:21;18.32;;;14.58;;
34695;SDS011;20918;51.138;17.370;2022-08-18T02:29:23;19.23;;;15.03;;
34695;SDS011;20918;51.138;17.370;2022-08-18T02:32:24;18.90;;;16.90;;
34695;SDS011;20918;51.138;17.370;2022-08-18T02:35:25;22.42;;;16.80;;
34695;SDS011;20918;51.138;17.370;2022-08-18T02:38:27;19.12;;;15.80;;
34695;SDS011;20918;51.138;17.370;2022-08-18T02:41:29;19.17;;;14.60;;
34695;SDS011;20918;51.138;17.370;2022-08-18T02:44:32;19.17;;;15.75;;
34695;SDS011;20918;51.138;17.370;2022-08-18T02:47:33;18.48;;;14.90;;
34695;SDS011;20918;51.138;17.370;2022-08-18T02:50:34;19.32;;;17.20;;
34695;SDS011;20918;51.138;17.370;2022-08-18T02:53:38;22.17;;;17.87;;
34695;SDS011;20918;51.138;17.370;2022-08-18T02:56:42;20.25;;;16.77;;
34695;SDS011;20918;51.138;17.370;2022-08-18T02:59:44;20.25;;;17.25;;
34695;SDS011;20918;51.138;17.370;2022-08-18T03:02:46;21.85;;;16.60;;
34695;SDS011;20918;51.138;17.370;2022-08-18T03:05:50;22.13;;;19.05;;
34695;SDS011;20918;51.138;17.370;2022-08-18T03:08:51;24.07;;;20.50;;
34695;SDS011;20918;51.138;17.370;2022-08-18T03:11:54;24.32;;;21.33;;
34695;SDS011;20918;51.138;17.370;2022-08-18T03:14:55;23.57;;;20.90;;
34695;SDS011;20918;51.138;17.370;2022-08-18T03:17:56;24.07;;;20.77;;
34695;SDS011;20918;51.138;17.370;2022-08-18T03:20:57;26.90;;;20.57;;
34695;SDS011;20918;51.138;17.370;2022-08-18T03:24:00;23.07;;;20.70;;
34695;SDS011;20918;51.138;17.370;2022-08-18T03:27:04;23.80;;;21.30;;
34695;SDS011;20918;51.138;17.370;2022-08-18T03:30:07;25.20;;;22.42;;
34695;SDS011;20918;51.138;17.370;2022-08-18T03:33:09;24.43;;;21.90;;
34695;SDS011;20918;51.138;17.370;2022-08-18T03:36:12;28.30;;;23.20;;
34695;SDS011;20918;51.138;17.370;2022-08-18T03:39:17;24.47;;;21.77;;
34695;SDS011;20918;51.138;17.370;2022-08-18T03:42:21;27.27;;;22.60;;
34695;SDS011;20918;51.138;17.370;2022-08-18T03:45:23;26.57;;;21.60;;
34695;SDS011;20918;51.138;17.370;2022-08-18T03:48:26;28.80;;;23.83;;
34695;SDS011;20918;51.138;17.370;2022-08-18T03:51:29;26.30;;;23.27;;
34695;SDS011;20918;51.138;17.370;2022-08-18T03:54:32;29.60;;;24.40;;
34695;SDS011;20918;51.138;17.370;2022-08-18T03:57:33;25.60;;;22.90;;
34695;SDS011;20918;51.138;17.370;2022-08-18T04:00:36;26.77;;;23.15;;
34695;SDS011;20918;51.138;17.370;2022-08-18T04:03:38;30.37;;;22.87;;
34695;SDS011;20918;51.138;17.370;2022-08-18T04:06:44;27.30;;;22.32;;
34695;SDS011;20918;51.138;17.370;2022-08-18T04:09:57;35.38;;;23.42;;
34695;SDS011;20918;51.138;17.370;2022-08-18T04:12:58;26.77;;;21.95;;
34695;SDS011;20918;51.138;17.370;2022-08-18T04:15:59;32.55;;;22.58;;
34695;SDS011;20918;51.138;17.370;2022-08-18T04:19:00;27.48;;;22.85;;
34695;SDS011;20918;51.138;17.370;2022-08-18T04:22:03;29.12;;;22.32;;
34695;SDS011;20918;51.138;17.370;2022-08-18T04:25:05;28.27;;;23.52;;
34695;SDS011;20918;51.138;17.370;2022-08-18T04:28:08;27.60;;;22.17;;
34695;SDS011;20918;51.138;17.370;2022-08-18T04:31:10;29.20;;;22.20;;
34695;SDS011;20918;51.138;17.370;2022-08-18T04:34:14;26.20;;;22.45;;
34695;SDS011;20918;51.138;17.370;2022-08-18T04:37:16;29.60;;;23.57;;
34695;SDS011;20918;51.138;17.370;2022-08-18T04:40:17;27.32;;;22.22;;
34695;SDS011;20918;51.138;17.370;2022-08-18T04:43:20;25.27;;;22.58;;
34695;SDS011;20918;51.138;17.370;2022-08-18T04:46:21;28.42;;;22.20;;
34695;SDS011;20918;51.138;17.370;2022-08-18T04:49:24;26.05;;;23.38;;
34695;SDS011;20918;51.138;17.370;2022-08-18T04:52:25;26.33;;;23.50;;
34695;SDS011;20918;51.138;17.370;2022-08-18T04:55:53;27.80;;;22.35;;
34695;SDS011;20918;51.138;17.370;2022-08-18T04:58:56;26.05;;;23.25;;
34695;SDS011;20918;51.138;17.370;2022-08-18T05:02:01;25.30;;;22.67;;
34695;SDS011;20918;51.138;17.370;2022-08-18T05:05:07;27.55;;;22.48;;
34695;SDS011;20918;51.138;17.370;2022-08-18T05:08:09;28.23;;;21.95;;
34695;SDS011;20918;51.138;17.370;2022-08-18T05:11:10;24.43;;;21.07;;
34695;SDS011;20918;51.138;17.370;2022-08-18T05:14:11;22.25;;;19.87;;
34695;SDS011;20918;51.138;17.370;2022-08-18T05:17:13;22.62;;;20.32;;
34695;SDS011;20918;51.138;17.370;2022-08-18T05:20:15;24.20;;;20.10;;
34695;SDS011;20918;51.138;17.370;2022-08-18T05:23:17;27.00;;;19.62;;
34695;SDS011;20918;51.138;17.370;2022-08-18T05:26:22;24.35;;;20.92;;
34695;SDS011;20918;51.138;17.370;2022-08-18T05:29:23;22.45;;;19.87;;
34695;SDS011;20918;51.138;17.370;2022-08-18T05:32:24;23.45;;;21.05;;
34695;SDS011;20918;51.138;17.370;2022-08-18T05:35:27;23.27;;;20.85;;
34695;SDS011;20918;51.138;17.370;2022-08-18T05:41:56;29.98;;;20.37;;
34695;SDS011;20918;51.138;17.370;2022-08-18T05:45:10;22.75;;;19.12;;
34695;SDS011;20918;51.138;17.370;2022-08-18T05:48:15;20.88;;;18.42;;
34695;SDS011;20918;51.138;17.370;2022-08-18T05:51:18;22.73;;;18.48;;
34695;SDS011;20918;51.138;17.370;2022-08-18T05:54:26;21.05;;;18.80;;
34695;SDS011;20918;51.138;17.370;2022-08-18T05:58:05;23.07;;;18.10;;
34695;SDS011;20918;51.138;17.370;2022-08-18T06:01:06;25.02;;;19.12;;
34695;SDS011;20918;51.138;17.370;2022-08-18T06:04:19;18.82;;;16.85;;
34695;SDS011;20918;51.138;17.370;2022-08-18T06:10:56;23.10;;;18.70;;
34695;SDS011;20918;51.138;17.370;2022-08-18T06:13:57;25.35;;;16.48;;
34695;SDS011;20918;51.138;17.370;2022-08-18T06:17:02;18.70;;;16.70;;
34695;SDS011;20918;51.138;17.370;2022-08-18T06:20:24;22.58;;;16.60;;
34695;SDS011;20918;51.138;17.370;2022-08-18T06:23:52;24.50;;;16.93;;
34695;SDS011;20918;51.138;17.370;2022-08-18T06:27:20;21.52;;;16.65;;
34695;SDS011;20918;51.138;17.370;2022-08-18T06:37:20;17.73;;;15.83;;
34695;SDS011;20918;51.138;17.370;2022-08-18T06:40:25;18.12;;;15.70;;
34695;SDS011;20918;51.138;17.370;2022-08-18T06:43:26;18.65;;;16.77;;
34695;SDS011;20918;51.138;17.370;2022-08-18T06:50:07;19.10;;;15.20;;
34695;SDS011;20918;51.138;17.370;2022-08-18T06:56:55;21.93;;;16.77;;
34695;SDS011;20918;51.138;17.370;2022-08-18T06:59:59;20.10;;;15.45;;
34695;SDS011;20918;51.138;17.370;2022-08-18T07:03:23;20.60;;;15.78;;
34695;SDS011;20918;51.138;17.370;2022-08-18T07:06:38;20.97;;;14.85;;
34695;SDS011;20918;51.138;17.370;2022-08-18T07:09:40;17.62;;;15.18;;
34695;SDS011;20918;51.138;17.370;2022-08-18T07:12:41;17.00;;;13.95;;
34695;SDS011;20918;51.138;17.370;2022-08-18T07:15:43;20.88;;;14.25;;
34695;SDS011;20918;51.138;17.370;2022-08-18T07:18:47;18.67;;;15.28;;
34695;SDS011;20918;51.138;17.370;2022-08-18T07:22:10;16.70;;;14.93;;
34695;SDS011;20918;51.138;17.370;2022-08-18T07:25:18;16.05;;;13.40;;
34695;SDS011;20918;51.138;17.370;2022-08-18T07:28:30;17.62;;;13.58;;
34695;SDS011;20918;51.138;17.370;2022-08-18T07:31:42;18.32;;;13.93;;
34695;SDS011;20918;51.138;17.370;2022-08-18T07:34:49;22.80;;;14.20;;
34695;SDS011;20918;51.138;17.370;2022-08-18T07:38:01;20.30;;;13.48;;
34695;SDS011;20918;51.138;17.370;2022-08-18T07:41:18;16.37;;;14.20;;
34695;SDS011;20918;51.138;17.370;2022-08-18T07:47:41;19.40;;;13.10;;
34695;SDS011;20918;51.138;17.370;2022-08-18T07:50:56;16.25;;;12.75;;
34695;SDS011;20918;51.138;17.370;2022-08-18T08:04:45;17.80;;;11.73;;
34695;SDS011;20918;51.138;17.370;2022-08-18T08:14:40;13.72;;;11.25;;
34695;SDS011;20918;51.138;17.370;2022-08-18T08:21:04;12.55;;;11.20;;
34695;SDS011;20918;51.138;17.370;2022-08-18T08:24:12;12.50;;;10.53;;
34695;SDS011;20918;51.138;17.370;2022-08-18T08:30:54;10.80;;;9.73;;
34695;SDS011;20918;51.138;17.370;2022-08-18T08:37:37;12.93;;;10.00;;
34695;SDS011;20918;51.138;17.370;2022-08-18T08:40:58;14.23;;;10.40;;
34695;SDS011;20918;51.138;17.370;2022-08-18T08:44:05;11.93;;;9.53;;
34695;SDS011;20918;51.138;17.370;2022-08-18T08:47:22;12.03;;;8.80;;
34695;SDS011;20918;51.138;17.370;2022-08-18T08:50:34;15.85;;;9.63;;
34695;SDS011;20918;51.138;17.370;2022-08-18T08:53:46;13.95;;;9.55;;
34695;SDS011;20918;51.138;17.370;2022-08-18T08:56:51;15.98;;;9.60;;
34695;SDS011;20918;51.138;17.370;2022-08-18T08:59:56;15.58;;;9.33;;
34695;SDS011;20918;51.138;17.370;2022-08-18T09:03:10;15.88;;;9.38;;
34695;SDS011;20918;51.138;17.370;2022-08-18T09:23:50;13.75;;;9.30;;
34695;SDS011;20918;51.138;17.370;2022-08-18T09:34:19;11.60;;;9.08;;
34695;SDS011;20918;51.138;17.370;2022-08-18T09:37:26;15.03;;;9.38;;
34695;SDS011;20918;51.138;17.370;2022-08-18T09:48:22;9.53;;;8.50;;
34695;SDS011;20918;51.138;17.370;2022-08-18T09:54:28;11.85;;;8.88;;
34695;SDS011;20918;51.138;17.370;2022-08-18T09:57:33;10.53;;;8.65;;
34695;SDS011;20918;51.138;17.370;2022-08-18T10:00:38;11.22;;;8.95;;
34695;SDS011;20918;51.138;17.370;2022-08-18T10:03:40;9.85;;;8.85;;
34695;SDS011;20918;51.138;17.370;2022-08-18T10:06:43;10.05;;;8.83;;
34695;SDS011;20918;51.138;17.370;2022-08-18T10:16:59;9.85;;;8.30;;
34695;SDS011;20918;51.138;17.370;2022-08-18T10:20:48;13.30;;;8.25;;
34695;SDS011;20918;51.138;17.370;2022-08-18T10:27:31;12.03;;;9.35;;
34695;SDS011;20918;51.138;17.370;2022-08-18T10:40:20;14.47;;;8.90;;
34695;SDS011;20918;51.138;17.370;2022-08-18T10:43:29;11.55;;;9.58;;
34695;SDS011;20918;51.138;17.370;2022-08-18T10:46:40;10.43;;;8.55;;
34695;SDS011;20918;51.138;17.370;2022-08-18T10:49:40;9.93;;;8.85;;
34695;SDS011;20918;51.138;17.370;2022-08-18T10:59:33;11.53;;;9.30;;
34695;SDS011;20918;51.138;17.370;2022-08-18T11:06:18;10.70;;;9.58;;
34695;SDS011;20918;51.138;17.370;2022-08-18T11:09:25;10.45;;;9.38;;
34695;SDS011;20918;51.138;17.370;2022-08-18T11:12:43;13.72;;;9.70;;
34695;SDS011;20918;51.138;17.370;2022-08-18T11:16:13;16.02;;;10.58;;
34695;SDS011;20918;51.138;17.370;2022-08-18T11:19:26;13.50;;;10.85;;
34695;SDS011;20918;51.138;17.370;2022-08-18T11:22:29;12.45;;;11.08;;
34695;SDS011;20918;51.138;17.370;2022-08-18T11:25:34;13.55;;;11.95;;
34695;SDS011;20918;51.138;17.370;2022-08-18T11:28:37;13.15;;;11.83;;
34695;SDS011;20918;51.138;17.370;2022-08-18T11:31:38;14.68;;;11.68;;
34695;SDS011;20918;51.138;17.370;2022-08-18T11:34:44;13.18;;;11.60;;
34695;SDS011;20918;51.138;17.370;2022-08-18T11:38:02;13.50;;;12.03;;
34695;SDS011;20918;51.138;17.370;2022-08-18T11:41:18;15.72;;;12.18;;
34695;SDS011;20918;51.138;17.370;2022-08-18T11:44:24;12.20;;;10.95;;
34695;SDS011;20918;51.138;17.370;2022-08-18T11:47:31;13.50;;;11.28;;
34695;SDS011;20918;51.138;17.370;2022-08-18T11:50:32;12.45;;;10.23;;
34695;SDS011;20918;51.138;17.370;2022-08-18T11:53:36;12.73;;;10.30;;
34695;SDS011;20918;51.138;17.370;2022-08-18T11:56:43;12.00;;;10.58;;
34695;SDS011;20918;51.138;17.370;2022-08-18T11:59:44;13.48;;;9.20;;
34695;SDS011;20918;51.138;17.370;2022-08-18T12:02:45;12.88;;;8.80;;
34695;SDS011;20918;51.138;17.370;2022-08-18T12:05:55;9.48;;;8.03;;
34695;SDS011;20918;51.138;17.370;2022-08-18T12:12:23;11.08;;;9.78;;
34695;SDS011;20918;51.138;17.370;2022-08-18T12:15:32;10.93;;;9.35;;
34695;SDS011;20918;51.138;17.370;2022-08-18T12:18:33;14.75;;;9.30;;
34695;SDS011;20918;51.138;17.370;2022-08-18T12:21:45;11.30;;;8.60;;
34695;SDS011;20918;51.138;17.370;2022-08-18T12:24:56;9.50;;;8.55;;
34695;SDS011;20918;51.138;17.370;2022-08-18T12:27:57;10.78;;;8.05;;
34695;SDS011;20918;51.138;17.370;2022-08-18T12:30:58;9.38;;;7.53;;
34695;SDS011;20918;51.138;17.370;2022-08-18T12:33:59;11.48;;;8.20;;
34695;SDS011;20918;51.138;17.370;2022-08-18T12:37:01;8.63;;;7.22;;
34695;SDS011;20918;51.138;17.370;2022-08-18T12:40:02;9.98;;;8.00;;
34695;SDS011;20918;51.138;17.370;2022-08-18T12:43:05;12.50;;;7.92;;
34695;SDS011;20918;51.138;17.370;2022-08-18T12:46:07;9.98;;;6.80;;
34695;SDS011;20918;51.138;17.370;2022-08-18T12:49:09;10.35;;;7.50;;
34695;SDS011;20918;51.138;17.370;2022-08-18T12:52:18;10.13;;;7.83;;
34695;SDS011;20918;51.138;17.370;2022-08-18T12:55:21;9.03;;;7.53;;
34695;SDS011;20918;51.138;17.370;2022-08-18T12:58:22;10.65;;;7.00;;
34695;SDS011;20918;51.138;17.370;2022-08-18T13:01:23;9.15;;;7.72;;
34695;SDS011;20918;51.138;17.370;2022-08-18T13:04:26;11.38;;;8.23;;
34695;SDS011;20918;51.138;17.370;2022-08-18T13:07:27;11.08;;;8.13;;
34695;SDS011;20918;51.138;17.370;2022-08-18T13:10:31;8.63;;;7.67;;
34695;SDS011;20918;51.138;17.370;2022-08-18T13:13:33;11.73;;;8.20;;
34695;SDS011;20918;51.138;17.370;2022-08-18T13:16:35;8.50;;;7.55;;
34695;SDS011;20918;51.138;17.370;2022-08-18T13:19:39;8.13;;;7.28;;
34695;SDS011;20918;51.138;17.370;2022-08-18T13:22:41;11.18;;;7.25;;
34695;SDS011;20918;51.138;17.370;2022-08-18T13:25:43;10.05;;;7.78;;
34695;SDS011;20918;51.138;17.370;2022-08-18T13:28:44;8.38;;;7.30;;
34695;SDS011;20918;51.138;17.370;2022-08-18T13:31:45;16.45;;;8.20;;
34695;SDS011;20918;51.138;17.370;2022-08-18T13:34:47;12.50;;;8.15;;
34695;SDS011;20918;51.138;17.370;2022-08-18T13:37:48;10.58;;;8.08;;
34695;SDS011;20918;51.138;17.370;2022-08-18T13:40:49;13.68;;;9.08;;
34695;SDS011;20918;51.138;17.370;2022-08-18T13:43:53;14.70;;;8.93;;
34695;SDS011;20918;51.138;17.370;2022-08-18T13:46:54;9.70;;;8.65;;
34695;SDS011;20918;51.138;17.370;2022-08-18T13:49:55;8.45;;;7.58;;
34695;SDS011;20918;51.138;17.370;2022-08-18T13:52:56;8.15;;;7.33;;
34695;SDS011;20918;51.138;17.370;2022-08-18T13:56:01;8.83;;;7.12;;
34695;SDS011;20918;51.138;17.370;2022-08-18T13:59:03;11.45;;;7.58;;
34695;SDS011;20918;51.138;17.370;2022-08-18T14:02:06;8.18;;;6.70;;
34695;SDS011;20918;51.138;17.370;2022-08-18T14:05:11;9.93;;;7.80;;
34695;SDS011;20918;51.138;17.370;2022-08-18T14:08:12;12.18;;;7.25;;
34695;SDS011;20918;51.138;17.370;2022-08-18T14:11:13;8.25;;;7.05;;
34695;SDS011;20918;51.138;17.370;2022-08-18T14:14:15;11.15;;;7.62;;
34695;SDS011;20918;51.138;17.370;2022-08-18T14:17:16;7.85;;;6.85;;
34695;SDS011;20918;51.138;17.370;2022-08-18T14:20:18;10.32;;;6.40;;
34695;SDS011;20918;51.138;17.370;2022-08-18T14:23:37;7.67;;;6.97;;
34695;SDS011;20918;51.138;17.370;2022-08-18T14:26:57;10.20;;;7.25;;
34695;SDS011;20918;51.138;17.370;2022-08-18T14:30:06;12.30;;;7.85;;
34695;SDS011;20918;51.138;17.370;2022-08-18T14:33:07;9.10;;;7.28;;
34695;SDS011;20918;51.138;17.370;2022-08-18T14:36:11;11.95;;;7.65;;
34695;SDS011;20918;51.138;17.370;2022-08-18T14:39:14;7.55;;;6.80;;
34695;SDS011;20918;51.138;17.370;2022-08-18T14:42:15;9.33;;;6.35;;
34695;SDS011;20918;51.138;17.370;2022-08-18T14:45:18;11.40;;;6.20;;
34695;SDS011;20918;51.138;17.370;2022-08-18T14:48:20;9.20;;;6.67;;
34695;SDS011;20918;51.138;17.370;2022-08-18T14:51:23;8.08;;;7.22;;
34695;SDS011;20918;51.138;17.370;2022-08-18T14:54:26;8.20;;;6.53;;
34695;SDS011;20918;51.138;17.370;2022-08-18T14:57:29;9.13;;;6.53;;
34695;SDS011;20918;51.138;17.370;2022-08-18T15:00:30;8.10;;;6.45;;
34695;SDS011;20918;51.138;17.370;2022-08-18T15:03:31;9.23;;;7.20;;
34695;SDS011;20918;51.138;17.370;2022-08-18T15:06:33;7.53;;;6.83;;
34695;SDS011;20918;51.138;17.370;2022-08-18T15:09:34;11.20;;;7.15;;
34695;SDS011;20918;51.138;17.370;2022-08-18T15:12:35;7.78;;;7.03;;
34695;SDS011;20918;51.138;17.370;2022-08-18T15:15:37;13.50;;;6.85;;
34695;SDS011;20918;51.138;17.370;2022-08-18T15:18:41;7.97;;;6.95;;
34695;SDS011;20918;51.138;17.370;2022-08-18T15:21:44;9.80;;;6.22;;
34695;SDS011;20918;51.138;17.370;2022-08-18T15:25:04;8.60;;;6.55;;
34695;SDS011;20918;51.138;17.370;2022-08-18T15:28:26;11.43;;;7.80;;
34695;SDS011;20918;51.138;17.370;2022-08-18T15:31:27;8.93;;;8.05;;
34695;SDS011;20918;51.138;17.370;2022-08-18T15:34:28;10.82;;;8.00;;
34695;SDS011;20918;51.138;17.370;2022-08-18T15:37:32;11.90;;;8.05;;
34695;SDS011;20918;51.138;17.370;2022-08-18T15:40:34;12.93;;;8.30;;
34695;SDS011;20918;51.138;17.370;2022-08-18T15:43:36;8.85;;;7.45;;
34695;SDS011;20918;51.138;17.370;2022-08-18T15:46:37;10.70;;;8.33;;
34695;SDS011;20918;51.138;17.370;2022-08-18T15:49:38;12.28;;;8.23;;
34695;SDS011;20918;51.138;17.370;2022-08-18T15:52:50;14.07;;;9.60;;
34695;SDS011;20918;51.138;17.370;2022-08-18T15:55:55;12.82;;;10.13;;
34695;SDS011;20918;51.138;17.370;2022-08-18T15:58:57;16.80;;;9.55;;
34695;SDS011;20918;51.138;17.370;2022-08-18T16:02:01;18.62;;;8.88;;
34695;SDS011;20918;51.138;17.370;2022-08-18T16:05:03;11.03;;;8.50;;
34695;SDS011;20918;51.138;17.370;2022-08-18T16:08:07;9.58;;;8.58;;
34695;SDS011;20918;51.138;17.370;2022-08-18T16:11:12;9.73;;;8.20;;
34695;SDS011;20918;51.138;17.370;2022-08-18T16:14:15;9.43;;;8.33;;
34695;SDS011;20918;51.138;17.370;2022-08-18T16:17:16;11.80;;;8.50;;
34695;SDS011;20918;51.138;17.370;2022-08-18T16:20:18;9.38;;;8.48;;
34695;SDS011;20918;51.138;17.370;2022-08-18T16:23:23;11.48;;;8.13;;
34695;SDS011;20918;51.138;17.370;2022-08-18T16:26:24;10.43;;;7.95;;
34695;SDS011;20918;51.138;17.370;2022-08-18T16:29:25;13.68;;;8.05;;
34695;SDS011;20918;51.138;17.370;2022-08-18T16:32:26;9.30;;;7.90;;
34695;SDS011;20918;51.138;17.370;2022-08-18T16:35:28;12.05;;;8.60;;
34695;SDS011;20918;51.138;17.370;2022-08-18T16:38:31;11.80;;;8.18;;
34695;SDS011;20918;51.138;17.370;2022-08-18T16:41:34;10.30;;;8.23;;
34695;SDS011;20918;51.138;17.370;2022-08-18T16:44:35;12.28;;;8.33;;
34695;SDS011;20918;51.138;17.370;2022-08-18T16:47:36;14.35;;;7.62;;
34695;SDS011;20918;51.138;17.370;2022-08-18T16:50:39;13.95;;;8.33;;
34695;SDS011;20918;51.138;17.370;2022-08-18T16:53:44;9.35;;;7.85;;
34695;SDS011;20918;51.138;17.370;2022-08-18T16:56:46;9.58;;;7.83;;
34695;SDS011;20918;51.138;17.370;2022-08-18T16:59:48;9.78;;;7.92;;
34695;SDS011;20918;51.138;17.370;2022-08-18T17:06:28;12.90;;;7.37;;
34695;SDS011;20918;51.138;17.370;2022-08-18T17:09:29;14.78;;;7.85;;
34695;SDS011;20918;51.138;17.370;2022-08-18T17:12:32;11.55;;;8.53;;
34695;SDS011;20918;51.138;17.370;2022-08-18T17:15:33;15.23;;;8.65;;
34695;SDS011;20918;51.138;17.370;2022-08-18T17:18:34;14.38;;;8.20;;
34695;SDS011;20918;51.138;17.370;2022-08-18T17:21:36;13.18;;;7.62;;
34695;SDS011;20918;51.138;17.370;2022-08-18T17:24:38;14.85;;;8.88;;
34695;SDS011;20918;51.138;17.370;2022-08-18T17:27:40;10.45;;;8.33;;
34695;SDS011;20918;51.138;17.370;2022-08-18T17:30:48;13.00;;;8.13;;
34695;SDS011;20918;51.138;17.370;2022-08-18T17:33:48;15.68;;;8.60;;
34695;SDS011;20918;51.138;17.370;2022-08-18T17:36:55;11.10;;;8.18;;
34695;SDS011;20918;51.138;17.370;2022-08-18T17:39:59;9.90;;;8.30;;
34695;SDS011;20918;51.138;17.370;2022-08-18T17:43:15;11.03;;;9.38;;
34695;SDS011;20918;51.138;17.370;2022-08-18T17:46:20;11.40;;;8.35;;
34695;SDS011;20918;51.138;17.370;2022-08-18T17:49:32;12.58;;;8.18;;
34695;SDS011;20918;51.138;17.370;2022-08-18T17:53:00;11.80;;;8.33;;
34695;SDS011;20918;51.138;17.370;2022-08-18T17:56:22;11.80;;;8.95;;
34695;SDS011;20918;51.138;17.370;2022-08-18T17:59:34;12.60;;;8.55;;
34695;SDS011;20918;51.138;17.370;2022-08-18T18:02:40;12.25;;;9.38;;
34695;SDS011;20918;51.138;17.370;2022-08-18T18:05:49;10.82;;;8.98;;
34695;SDS011;20918;51.138;17.370;2022-08-18T18:08:58;10.70;;;9.10;;
34695;SDS011;20918;51.138;17.370;2022-08-18T18:12:17;17.42;;;9.38;;
34695;SDS011;20918;51.138;17.370;2022-08-18T18:15:29;15.35;;;8.70;;
34695;SDS011;20918;51.138;17.370;2022-08-18T18:18:39;11.25;;;8.68;;
34695;SDS011;20918;51.138;17.370;2022-08-18T18:21:45;12.18;;;9.30;;
34695;SDS011;20918;51.138;17.370;2022-08-18T18:24:51;15.70;;;9.18;;
34695;SDS011;20918;51.138;17.370;2022-08-18T18:28:02;13.72;;;9.03;;
34695;SDS011;20918;51.138;17.370;2022-08-18T18:31:18;12.20;;;9.45;;
34695;SDS011;20918;51.138;17.370;2022-08-18T18:34:35;14.07;;;9.70;;
34695;SDS011;20918;51.138;17.370;2022-08-18T18:37:43;13.53;;;9.10;;
34695;SDS011;20918;51.138;17.370;2022-08-18T18:41:05;13.15;;;10.05;;
34695;SDS011;20918;51.138;17.370;2022-08-18T18:44:13;10.30;;;9.10;;
34695;SDS011;20918;51.138;17.370;2022-08-18T18:51:02;15.05;;;9.55;;
34695;SDS011;20918;51.138;17.370;2022-08-18T18:54:15;14.93;;;10.03;;
34695;SDS011;20918;51.138;17.370;2022-08-18T18:57:47;12.55;;;9.73;;
34695;SDS011;20918;51.138;17.370;2022-08-18T19:01:17;16.70;;;10.20;;
34695;SDS011;20918;51.138;17.370;2022-08-18T19:04:24;17.42;;;9.88;;
34695;SDS011;20918;51.138;17.370;2022-08-18T19:11:01;14.33;;;9.58;;
34695;SDS011;20918;51.138;17.370;2022-08-18T19:14:31;12.20;;;9.95;;
34695;SDS011;20918;51.138;17.370;2022-08-18T19:17:48;16.87;;;10.13;;
34695;SDS011;20918;51.138;17.370;2022-08-18T19:21:00;16.32;;;10.53;;
34695;SDS011;20918;51.138;17.370;2022-08-18T19:24:15;14.13;;;10.82;;
34695;SDS011;20918;51.138;17.370;2022-08-18T19:27:24;17.32;;;11.08;;
34695;SDS011;20918;51.138;17.370;2022-08-18T19:30:29;14.18;;;9.58;;
34695;SDS011;20918;51.138;17.370;2022-08-18T19:40:42;18.73;;;9.90;;
34695;SDS011;20918;51.138;17.370;2022-08-18T19:47:54;12.85;;;9.33;;
34695;SDS011;20918;51.138;17.370;2022-08-18T19:54:59;16.25;;;9.68;;
34695;SDS011;20918;51.138;17.370;2022-08-18T19:58:38;16.60;;;9.25;;
34695;SDS011;20918;51.138;17.370;2022-08-18T20:02:13;11.63;;;8.60;;
34695;SDS011;20918;51.138;17.370;2022-08-18T20:22:45;13.72;;;9.75;;
34695;SDS011;20918;51.138;17.370;2022-08-18T20:25:50;11.53;;;10.28;;
34695;SDS011;20918;51.138;17.370;2022-08-18T20:28:51;12.58;;;9.35;;
34695;SDS011;20918;51.138;17.370;2022-08-18T20:31:59;20.25;;;9.93;;
34695;SDS011;20918;51.138;17.370;2022-08-18T20:35:22;15.80;;;9.95;;
34695;SDS011;20918;51.138;17.370;2022-08-18T20:41:43;12.58;;;10.15;;
34695;SDS011;20918;51.138;17.370;2022-08-18T20:48:17;20.05;;;10.18;;
34695;SDS011;20918;51.138;17.370;2022-08-18T20:51:24;15.53;;;10.15;;
34695;SDS011;20918;51.138;17.370;2022-08-18T20:58:22;15.73;;;10.87;;